sensor_id;sensor_type;location;lat;lon;timestamp;pressure;altitude;pressure_sealevel;temperature;humidity
55538;BME280;41383;51.418;7.286;2023-06-19T00:01:07;99211.00;;;23.93;48.87
55538;BME280;41383;51.418;7.286;2023-06-19T00:03:33;99202.59;;;23.89;48.62
55538;BME280;41383;51.418;7.286;2023-06-19T00:05:58;99195.06;;;23.89;48.97
55538;BME280;41383;51.418;7.286;2023-06-19T00:08:23;99191.88;;;23.91;49.28
55538;BME280;41383;51.418;7.286;2023-06-19T00:10:48;99203.78;;;23.88;49.37
55538;BME280;41383;51.418;7.286;2023-06-19T00:13:13;99200.63;;;23.89;49.20
55538;BME280;41383;51.418;7.286;2023-06-19T00:15:39;99199.00;;;23.88;49.43
55538;BME280;41383;51.418;7.286;2023-06-19T00:18:05;99189.22;;;23.75;49.91
55538;BME280;41383;51.418;7.286;2023-06-19T00:20:32;99187.69;;;23.77;49.99
55538;BME280;41383;51.418;7.286;2023-06-19T00:22:57;99190.47;;;23.77;50.12
55538;BME280;41383;51.418;7.286;2023-06-19T00:25:22;99191.44;;;23.65;50.22
55538;BME280;41383;51.418;7.286;2023-06-19T00:27:47;99203.00;;;23.67;50.16
55538;BME280;41383;51.418;7.286;2023-06-19T00:30:13;99212.00;;;23.61;50.48
55538;BME280;41383;51.418;7.286;2023-06-19T00:32:38;99215.66;;;23.65;50.52
55538;BME280;41383;51.418;7.286;2023-06-19T00:35:15;99214.72;;;23.57;50.66
55538;BME280;41383;51.418;7.286;2023-06-19T00:37:41;99218.97;;;23.51;51.13
55538;BME280;41383;51.418;7.286;2023-06-19T00:40:14;99211.06;;;23.53;51.00
55538;BME280;41383;51.418;7.286;2023-06-19T00:42:41;99215.88;;;23.56;50.96
55538;BME280;41383;51.418;7.286;2023-06-19T00:45:07;99216.31;;;23.58;51.23
55538;BME280;41383;51.418;7.286;2023-06-19T00:47:33;99216.19;;;23.51;51.01
55538;BME280;41383;51.418;7.286;2023-06-19T00:49:59;99217.50;;;23.57;50.79
55538;BME280;41383;51.418;7.286;2023-06-19T00:52:24;99215.44;;;23.54;50.94
55538;BME280;41383;51.418;7.286;2023-06-19T00:54:49;99218.91;;;23.47;51.20
55538;BME280;41383;51.418;7.286;2023-06-19T00:57:15;99211.56;;;23.59;51.01
55538;BME280;41383;51.418;7.286;2023-06-19T00:59:40;99215.16;;;23.59;50.73
55538;BME280;41383;51.418;7.286;2023-06-19T01:02:06;99207.09;;;23.54;50.83
55538;BME280;41383;51.418;7.286;2023-06-19T01:04:31;99210.31;;;23.56;50.90
55538;BME280;41383;51.418;7.286;2023-06-19T01:07:08;99218.13;;;23.70;50.76
55538;BME280;41383;51.418;7.286;2023-06-19T01:09:53;99197.72;;;23.62;50.80
55538;BME280;41383;51.418;7.286;2023-06-19T01:12:25;99206.66;;;23.52;51.17
55538;BME280;41383;51.418;7.286;2023-06-19T01:14:58;99199.50;;;23.51;51.03
55538;BME280;41383;51.418;7.286;2023-06-19T01:17:25;99209.44;;;23.52;50.84
55538;BME280;41383;51.418;7.286;2023-06-19T01:19:51;99209.00;;;23.50;50.65
55538;BME280;41383;51.418;7.286;2023-06-19T01:22:32;99208.13;;;23.46;50.61
55538;BME280;41383;51.418;7.286;2023-06-19T01:24:57;99214.88;;;23.44;50.65
55538;BME280;41383;51.418;7.286;2023-06-19T01:27:25;99213.22;;;23.43;50.58
55538;BME280;41383;51.418;7.286;2023-06-19T01:29:51;99204.19;;;23.47;50.52
55538;BME280;41383;51.418;7.286;2023-06-19T01:32:21;99212.97;;;23.49;50.20
55538;BME280;41383;51.418;7.286;2023-06-19T01:34:48;99204.19;;;23.47;50.44
55538;BME280;41383;51.418;7.286;2023-06-19T01:37:15;99206.59;;;23.48;50.48
55538;BME280;41383;51.418;7.286;2023-06-19T01:39:41;99198.88;;;23.41;50.35
55538;BME280;41383;51.418;7.286;2023-06-19T01:42:07;99194.94;;;23.42;50.25
55538;BME280;41383;51.418;7.286;2023-06-19T01:44:35;99197.34;;;23.44;50.14
55538;BME280;41383;51.418;7.286;2023-06-19T01:47:08;99188.56;;;23.42;50.02
55538;BME280;41383;51.418;7.286;2023-06-19T01:49:33;99191.34;;;23.42;49.63
55538;BME280;41383;51.418;7.286;2023-06-19T01:51:58;99191.78;;;23.44;49.63
55538;BME280;41383;51.418;7.286;2023-06-19T01:54:26;99194.22;;;23.46;49.46
55538;BME280;41383;51.418;7.286;2023-06-19T01:56:51;99195.22;;;23.37;48.81
55538;BME280;41383;51.418;7.286;2023-06-19T01:59:16;99185.28;;;23.36;49.25
55538;BME280;41383;51.418;7.286;2023-06-19T02:01:41;99191.22;;;23.35;49.20
55538;BME280;41383;51.418;7.286;2023-06-19T02:04:07;99188.88;;;23.37;48.81
55538;BME280;41383;51.418;7.286;2023-06-19T02:06:32;99188.50;;;23.38;48.68
55538;BME280;41383;51.418;7.286;2023-06-19T02:08:57;99188.50;;;23.38;48.67
55538;BME280;41383;51.418;7.286;2023-06-19T02:11:22;99192.09;;;23.39;48.67
55538;BME280;41383;51.418;7.286;2023-06-19T02:13:48;99192.88;;;23.39;48.58
55538;BME280;41383;51.418;7.286;2023-06-19T02:16:13;99196.41;;;23.36;48.38
55538;BME280;41383;51.418;7.286;2023-06-19T02:18:38;99198.44;;;23.39;48.58
55538;BME280;41383;51.418;7.286;2023-06-19T02:21:04;99195.66;;;23.39;48.27
55538;BME280;41383;51.418;7.286;2023-06-19T02:23:29;99205.56;;;23.37;48.68
55538;BME280;41383;51.418;7.286;2023-06-19T02:25:54;99211.91;;;23.17;48.65
55538;BME280;41383;51.418;7.286;2023-06-19T02:28:19;99207.78;;;23.11;49.13
55538;BME280;41383;51.418;7.286;2023-06-19T02:30:45;99210.75;;;23.18;49.18
55538;BME280;41383;51.418;7.286;2023-06-19T02:33:10;99220.91;;;23.11;49.39
55538;BME280;41383;51.418;7.286;2023-06-19T02:35:35;99217.25;;;23.06;49.25
55538;BME280;41383;51.418;7.286;2023-06-19T02:38:00;99218.03;;;23.07;49.64
55538;BME280;41383;51.418;7.286;2023-06-19T02:40:26;99222.81;;;23.06;49.55
55538;BME280;41383;51.418;7.286;2023-06-19T02:42:51;99227.38;;;22.98;50.00
55538;BME280;41383;51.418;7.286;2023-06-19T02:45:16;99230.69;;;23.04;49.80
55538;BME280;41383;51.418;7.286;2023-06-19T02:47:42;99231.88;;;22.87;50.07
55538;BME280;41383;51.418;7.286;2023-06-19T02:50:07;99235.09;;;22.89;50.14
55538;BME280;41383;51.418;7.286;2023-06-19T02:52:32;99247.19;;;22.97;50.14
55538;BME280;41383;51.418;7.286;2023-06-19T02:54:58;99257.50;;;22.96;50.32
55538;BME280;41383;51.418;7.286;2023-06-19T02:57:24;99254.19;;;22.91;50.22
55538;BME280;41383;51.418;7.286;2023-06-19T02:59:49;99254.03;;;22.83;50.58
55538;BME280;41383;51.418;7.286;2023-06-19T03:02:14;99265.97;;;22.84;50.31
55538;BME280;41383;51.418;7.286;2023-06-19T03:04:40;99262.53;;;22.91;50.19
55538;BME280;41383;51.418;7.286;2023-06-19T03:07:09;99277.25;;;22.91;50.45
55538;BME280;41383;51.418;7.286;2023-06-19T03:09:35;99272.56;;;22.95;50.25
55538;BME280;41383;51.418;7.286;2023-06-19T03:12:01;99276.25;;;22.83;50.36
55538;BME280;41383;51.418;7.286;2023-06-19T03:14:26;99276.59;;;22.98;50.44
55538;BME280;41383;51.418;7.286;2023-06-19T03:16:51;99275.78;;;22.97;50.47
55538;BME280;41383;51.418;7.286;2023-06-19T03:19:17;99294.34;;;22.93;50.88
55538;BME280;41383;51.418;7.286;2023-06-19T03:21:42;99294.16;;;23.02;51.12
55538;BME280;41383;51.418;7.286;2023-06-19T03:24:07;99305.28;;;23.02;50.96
55538;BME280;41383;51.418;7.286;2023-06-19T03:26:32;99314.41;;;23.03;51.42
55538;BME280;41383;51.418;7.286;2023-06-19T03:28:58;99305.03;;;22.91;52.06
55538;BME280;41383;51.418;7.286;2023-06-19T03:31:23;99310.41;;;23.00;51.82
55538;BME280;41383;51.418;7.286;2023-06-19T03:33:48;99305.19;;;22.98;52.11
55538;BME280;41383;51.418;7.286;2023-06-19T03:36:14;99315.25;;;22.87;52.99
55538;BME280;41383;51.418;7.286;2023-06-19T03:38:39;99317.13;;;22.83;53.47
55538;BME280;41383;51.418;7.286;2023-06-19T03:41:04;99316.50;;;22.73;53.97
55538;BME280;41383;51.418;7.286;2023-06-19T03:43:29;99315.97;;;22.68;54.67
55538;BME280;41383;51.418;7.286;2023-06-19T03:45:55;99320.03;;;22.58;55.22
55538;BME280;41383;51.418;7.286;2023-06-19T03:48:20;99322.81;;;22.58;55.58
55538;BME280;41383;51.418;7.286;2023-06-19T03:50:45;99316.72;;;22.52;55.75
55538;BME280;41383;51.418;7.286;2023-06-19T03:53:10;99326.50;;;22.46;56.22
55538;BME280;41383;51.418;7.286;2023-06-19T03:55:36;99331.59;;;22.44;56.42
55538;BME280;41383;51.418;7.286;2023-06-19T03:58:01;99335.19;;;22.44;56.39
55538;BME280;41383;51.418;7.286;2023-06-19T04:00:26;99344.34;;;22.45;56.95
55538;BME280;41383;51.418;7.286;2023-06-19T04:02:52;99346.34;;;22.32;57.49
55538;BME280;41383;51.418;7.286;2023-06-19T04:05:17;99355.34;;;22.41;57.24
55538;BME280;41383;51.418;7.286;2023-06-19T04:07:43;99347.25;;;22.36;57.61
55538;BME280;41383;51.418;7.286;2023-06-19T04:10:08;99350.25;;;22.43;57.33
55538;BME280;41383;51.418;7.286;2023-06-19T04:12:34;99353.03;;;22.43;57.79
55538;BME280;41383;51.418;7.286;2023-06-19T04:14:59;99354.03;;;22.22;58.87
55538;BME280;41383;51.418;7.286;2023-06-19T04:17:24;99364.75;;;22.08;59.72
55538;BME280;41383;51.418;7.286;2023-06-19T04:19:50;99366.84;;;22.11;59.37
55538;BME280;41383;51.418;7.286;2023-06-19T04:22:15;99375.34;;;22.18;59.31
55538;BME280;41383;51.418;7.286;2023-06-19T04:24:40;99365.16;;;22.22;59.49
55538;BME280;41383;51.418;7.286;2023-06-19T04:27:06;99378.38;;;22.13;59.65
55538;BME280;41383;51.418;7.286;2023-06-19T04:29:33;99387.16;;;22.15;59.77
55538;BME280;41383;51.418;7.286;2023-06-19T04:31:59;99381.09;;;22.25;59.64
55538;BME280;41383;51.418;7.286;2023-06-19T04:34:24;99381.81;;;22.22;59.49
55538;BME280;41383;51.418;7.286;2023-06-19T04:36:50;99381.72;;;22.19;59.87
55538;BME280;41383;51.418;7.286;2023-06-19T04:39:16;99395.22;;;22.20;60.01
55538;BME280;41383;51.418;7.286;2023-06-19T04:41:44;99392.53;;;22.24;60.12
55538;BME280;41383;51.418;7.286;2023-06-19T04:44:10;99405.78;;;22.14;60.40
55538;BME280;41383;51.418;7.286;2023-06-19T04:46:39;99402.69;;;22.03;61.02
55538;BME280;41383;51.418;7.286;2023-06-19T04:49:05;99398.97;;;22.12;60.79
55538;BME280;41383;51.418;7.286;2023-06-19T04:51:31;99408.91;;;22.13;60.70
55538;BME280;41383;51.418;7.286;2023-06-19T04:53:58;99414.00;;;22.11;60.94
55538;BME280;41383;51.418;7.286;2023-06-19T04:56:23;99409.88;;;22.33;60.64
55538;BME280;41383;51.418;7.286;2023-06-19T04:58:48;99415.75;;;22.32;60.77
55538;BME280;41383;51.418;7.286;2023-06-19T05:01:15;99415.72;;;22.15;61.16
55538;BME280;41383;51.418;7.286;2023-06-19T05:03:42;99419.41;;;22.20;61.29
55538;BME280;41383;51.418;7.286;2023-06-19T05:06:07;99418.53;;;22.32;61.10
55538;BME280;41383;51.418;7.286;2023-06-19T05:08:33;99423.41;;;22.35;60.65
55538;BME280;41383;51.418;7.286;2023-06-19T05:10:59;99425.00;;;22.36;61.18
55538;BME280;41383;51.418;7.286;2023-06-19T05:13:24;99435.97;;;22.03;62.27
55538;BME280;41383;51.418;7.286;2023-06-19T05:15:49;99440.53;;;21.96;62.40
55538;BME280;41383;51.418;7.286;2023-06-19T05:18:16;99440.41;;;21.92;62.82
55538;BME280;41383;51.418;7.286;2023-06-19T05:20:41;99437.34;;;22.10;62.25
55538;BME280;41383;51.418;7.286;2023-06-19T05:23:06;99434.88;;;21.92;63.12
55538;BME280;41383;51.418;7.286;2023-06-19T05:25:31;99438.31;;;22.01;62.68
55538;BME280;41383;51.418;7.286;2023-06-19T05:27:57;99431.47;;;21.99;63.00
55538;BME280;41383;51.418;7.286;2023-06-19T05:30:22;99435.50;;;22.14;62.51
55538;BME280;41383;51.418;7.286;2023-06-19T05:32:47;99439.53;;;22.16;62.27
55538;BME280;41383;51.418;7.286;2023-06-19T05:35:12;99435.09;;;21.87;63.03
55538;BME280;41383;51.418;7.286;2023-06-19T05:37:37;99440.63;;;21.87;63.24
55538;BME280;41383;51.418;7.286;2023-06-19T05:40:05;99444.22;;;21.87;63.32
55538;BME280;41383;51.418;7.286;2023-06-19T05:42:31;99446.16;;;21.99;63.30
55538;BME280;41383;51.418;7.286;2023-06-19T05:44:56;99435.44;;;21.73;63.94
55538;BME280;41383;51.418;7.286;2023-06-19T05:47:21;99444.69;;;21.77;63.91
55538;BME280;41383;51.418;7.286;2023-06-19T05:49:50;99444.47;;;21.95;63.63
55538;BME280;41383;51.418;7.286;2023-06-19T05:52:15;99449.66;;;21.96;63.72
55538;BME280;41383;51.418;7.286;2023-06-19T05:54:41;99444.88;;;22.09;63.45
55538;BME280;41383;51.418;7.286;2023-06-19T05:57:06;99451.00;;;22.15;63.11
55538;BME280;41383;51.418;7.286;2023-06-19T05:59:31;99460.72;;;22.09;63.53
55538;BME280;41383;51.418;7.286;2023-06-19T06:01:56;99465.81;;;22.07;62.99
55538;BME280;41383;51.418;7.286;2023-06-19T06:04:22;99462.78;;;22.12;63.23
55538;BME280;41383;51.418;7.286;2023-06-19T06:06:47;99456.81;;;21.97;63.31
55538;BME280;41383;51.418;7.286;2023-06-19T06:09:12;99472.53;;;22.06;63.32
55538;BME280;41383;51.418;7.286;2023-06-19T06:11:39;99479.19;;;22.17;63.13
55538;BME280;41383;51.418;7.286;2023-06-19T06:14:04;99478.41;;;22.16;63.29
55538;BME280;41383;51.418;7.286;2023-06-19T06:16:30;99478.47;;;22.33;62.49
55538;BME280;41383;51.418;7.286;2023-06-19T06:18:55;99482.06;;;22.33;62.47
55538;BME280;41383;51.418;7.286;2023-06-19T06:21:20;99489.69;;;22.36;62.46
55538;BME280;41383;51.418;7.286;2023-06-19T06:23:45;99496.06;;;22.24;62.79
55538;BME280;41383;51.418;7.286;2023-06-19T06:26:12;99493.13;;;22.04;63.55
55538;BME280;41383;51.418;7.286;2023-06-19T06:28:38;99495.69;;;22.38;62.76
55538;BME280;41383;51.418;7.286;2023-06-19T06:31:04;99499.13;;;22.48;62.23
55538;BME280;41383;51.418;7.286;2023-06-19T06:33:29;99495.72;;;22.67;61.90
55538;BME280;41383;51.418;7.286;2023-06-19T06:35:55;99497.16;;;22.48;62.39
55538;BME280;41383;51.418;7.286;2023-06-19T06:38:20;99500.03;;;22.52;62.39
55538;BME280;41383;51.418;7.286;2023-06-19T06:40:46;99496.03;;;22.37;62.62
55538;BME280;41383;51.418;7.286;2023-06-19T06:43:11;99498.91;;;22.41;62.61
55538;BME280;41383;51.418;7.286;2023-06-19T06:45:37;99497.69;;;22.25;62.97
55538;BME280;41383;51.418;7.286;2023-06-19T06:48:07;99499.38;;;22.43;62.81
55538;BME280;41383;51.418;7.286;2023-06-19T06:50:33;99491.28;;;22.37;62.80
55538;BME280;41383;51.418;7.286;2023-06-19T06:52:58;99498.94;;;22.28;62.78
55538;BME280;41383;51.418;7.286;2023-06-19T06:55:23;99501.03;;;22.31;63.00
55538;BME280;41383;51.418;7.286;2023-06-19T06:57:49;99493.28;;;22.37;62.64
55538;BME280;41383;51.418;7.286;2023-06-19T07:00:14;99500.06;;;22.39;62.59
55538;BME280;41383;51.418;7.286;2023-06-19T07:02:40;99501.28;;;22.67;62.21
55538;BME280;41383;51.418;7.286;2023-06-19T07:05:07;99502.88;;;22.68;61.98
55538;BME280;41383;51.418;7.286;2023-06-19T07:07:32;99512.97;;;22.60;62.16
55538;BME280;41383;51.418;7.286;2023-06-19T07:09:57;99506.41;;;22.53;62.48
55538;BME280;41383;51.418;7.286;2023-06-19T07:12:23;99513.78;;;22.61;62.13
55538;BME280;41383;51.418;7.286;2023-06-19T07:14:48;99514.28;;;22.50;62.51
55538;BME280;41383;51.418;7.286;2023-06-19T07:17:13;99521.75;;;22.62;62.34
55538;BME280;41383;51.418;7.286;2023-06-19T07:19:38;99529.06;;;22.67;62.49
55538;BME280;41383;51.418;7.286;2023-06-19T07:22:04;99518.13;;;22.74;62.46
55538;BME280;41383;51.418;7.286;2023-06-19T07:24:29;99521.81;;;22.79;61.96
55538;BME280;41383;51.418;7.286;2023-06-19T07:26:55;99528.56;;;22.78;62.32
55538;BME280;41383;51.418;7.286;2023-06-19T07:29:21;99535.81;;;22.82;62.49
55538;BME280;41383;51.418;7.286;2023-06-19T07:31:47;99533.03;;;22.82;62.32
55538;BME280;41383;51.418;7.286;2023-06-19T07:34:13;99538.13;;;22.80;61.90
55538;BME280;41383;51.418;7.286;2023-06-19T07:36:38;99539.44;;;22.70;62.05
55538;BME280;41383;51.418;7.286;2023-06-19T07:39:04;99546.84;;;22.79;61.65
55538;BME280;41383;51.418;7.286;2023-06-19T07:41:29;99540.72;;;22.73;61.76
55538;BME280;41383;51.418;7.286;2023-06-19T07:43:54;99547.19;;;22.65;61.87
55538;BME280;41383;51.418;7.286;2023-06-19T07:46:20;99541.56;;;22.61;61.70
55538;BME280;41383;51.418;7.286;2023-06-19T07:48:45;99553.91;;;22.76;61.35
55538;BME280;41383;51.418;7.286;2023-06-19T07:51:10;99551.84;;;22.73;61.59
55538;BME280;41383;51.418;7.286;2023-06-19T07:53:35;99540.84;;;22.64;61.76
55538;BME280;41383;51.418;7.286;2023-06-19T07:56:01;99546.38;;;22.64;62.10
55538;BME280;41383;51.418;7.286;2023-06-19T07:58:26;99540.19;;;22.55;62.15
55538;BME280;41383;51.418;7.286;2023-06-19T08:00:51;99543.81;;;22.84;61.47
55538;BME280;41383;51.418;7.286;2023-06-19T08:03:16;99539.34;;;22.67;61.71
55538;BME280;41383;51.418;7.286;2023-06-19T08:05:42;99546.38;;;22.64;62.09
55538;BME280;41383;51.418;7.286;2023-06-19T08:08:07;99548.72;;;22.62;61.78
55538;BME280;41383;51.418;7.286;2023-06-19T08:10:32;99557.78;;;22.46;62.30
55538;BME280;41383;51.418;7.286;2023-06-19T08:12:57;99557.22;;;22.41;62.66
55538;BME280;41383;51.418;7.286;2023-06-19T08:15:23;99558.03;;;22.41;62.69
55538;BME280;41383;51.418;7.286;2023-06-19T08:17:48;99561.06;;;22.23;63.24
55538;BME280;41383;51.418;7.286;2023-06-19T08:20:13;99563.31;;;22.59;62.37
55538;BME280;41383;51.418;7.286;2023-06-19T08:22:39;99555.66;;;22.56;62.48
55538;BME280;41383;51.418;7.286;2023-06-19T08:25:04;99563.44;;;22.50;62.69
55538;BME280;41383;51.418;7.286;2023-06-19T08:27:30;99550.09;;;22.68;62.42
55538;BME280;41383;51.418;7.286;2023-06-19T08:29:55;99554.53;;;22.69;62.06
55538;BME280;41383;51.418;7.286;2023-06-19T08:32:20;99550.97;;;22.85;61.57
55538;BME280;41383;51.418;7.286;2023-06-19T08:34:46;99554.06;;;22.55;62.76
55538;BME280;41383;51.418;7.286;2023-06-19T08:37:11;99556.94;;;22.58;62.60
55538;BME280;41383;51.418;7.286;2023-06-19T08:39:36;99564.91;;;22.60;62.77
55538;BME280;41383;51.418;7.286;2023-06-19T08:42:06;99562.69;;;22.78;62.17
55538;BME280;41383;51.418;7.286;2023-06-19T08:44:33;99561.09;;;22.77;62.40
55538;BME280;41383;51.418;7.286;2023-06-19T08:46:58;99561.44;;;22.76;62.94
55538;BME280;41383;51.418;7.286;2023-06-19T08:49:23;99568.97;;;22.75;62.86
55538;BME280;41383;51.418;7.286;2023-06-19T08:51:49;99564.81;;;22.97;62.57
55538;BME280;41383;51.418;7.286;2023-06-19T08:54:14;99582.81;;;22.88;62.77
55538;BME280;41383;51.418;7.286;2023-06-19T08:56:39;99578.34;;;22.70;63.83
55538;BME280;41383;51.418;7.286;2023-06-19T08:59:15;99585.06;;;22.57;63.70
55538;BME280;41383;51.418;7.286;2023-06-19T09:01:47;99582.66;;;22.55;63.17
55538;BME280;41383;51.418;7.286;2023-06-19T09:04:18;99579.72;;;22.64;62.52
55538;BME280;41383;51.418;7.286;2023-06-19T09:06:54;99575.34;;;22.76;62.06
55538;BME280;41383;51.418;7.286;2023-06-19T09:09:21;99577.88;;;22.68;62.13
55538;BME280;41383;51.418;7.286;2023-06-19T09:12:07;99570.19;;;22.90;61.18
55538;BME280;41383;51.418;7.286;2023-06-19T09:14:36;99571.69;;;23.16;61.04
55538;BME280;41383;51.418;7.286;2023-06-19T09:17:03;99582.16;;;23.23;60.93
55538;BME280;41383;51.418;7.286;2023-06-19T09:19:29;99583.72;;;23.20;61.03
55538;BME280;41383;51.418;7.286;2023-06-19T09:22:02;99585.53;;;23.29;60.62
55538;BME280;41383;51.418;7.286;2023-06-19T09:24:35;99586.94;;;23.23;61.04
55538;BME280;41383;51.418;7.286;2023-06-19T09:27:06;99591.41;;;23.56;60.30
55538;BME280;41383;51.418;7.286;2023-06-19T09:29:32;99591.69;;;23.51;59.81
55538;BME280;41383;51.418;7.286;2023-06-19T09:31:57;99591.44;;;23.43;60.03
55538;BME280;41383;51.418;7.286;2023-06-19T09:34:22;99585.84;;;23.56;59.96
55538;BME280;41383;51.418;7.286;2023-06-19T09:36:48;99591.03;;;23.58;59.50
55538;BME280;41383;51.418;7.286;2023-06-19T09:39:16;99592.22;;;23.73;59.21
55538;BME280;41383;51.418;7.286;2023-06-19T09:41:42;99594.38;;;23.63;58.76
55538;BME280;41383;51.418;7.286;2023-06-19T09:44:11;99595.44;;;23.75;58.06
55538;BME280;41383;51.418;7.286;2023-06-19T09:46:39;99593.81;;;23.74;57.61
55538;BME280;41383;51.418;7.286;2023-06-19T09:49:06;99595.97;;;23.81;58.09
55538;BME280;41383;51.418;7.286;2023-06-19T09:51:37;99590.31;;;23.93;57.38
55538;BME280;41383;51.418;7.286;2023-06-19T09:54:02;99587.00;;;24.04;56.65
55538;BME280;41383;51.418;7.286;2023-06-19T09:56:30;99601.19;;;23.82;56.54
55538;BME280;41383;51.418;7.286;2023-06-19T09:58:57;99586.63;;;24.21;56.86
55538;BME280;41383;51.418;7.286;2023-06-19T10:01:26;99582.84;;;24.49;55.63
55538;BME280;41383;51.418;7.286;2023-06-19T10:04:02;99585.44;;;24.78;53.53
55538;BME280;41383;51.418;7.286;2023-06-19T10:06:27;99595.28;;;24.72;53.95
55538;BME280;41383;51.418;7.286;2023-06-19T10:08:55;99591.22;;;24.69;53.65
55538;BME280;41383;51.418;7.286;2023-06-19T10:11:20;99591.59;;;24.88;53.48
55538;BME280;41383;51.418;7.286;2023-06-19T10:13:45;99595.06;;;25.01;53.08
55538;BME280;41383;51.418;7.286;2023-06-19T10:16:21;99589.25;;;24.90;52.18
55538;BME280;41383;51.418;7.286;2023-06-19T10:18:47;99589.19;;;24.86;52.61
55538;BME280;41383;51.418;7.286;2023-06-19T10:21:19;99603.28;;;25.13;52.51
55538;BME280;41383;51.418;7.286;2023-06-19T10:23:53;99593.09;;;25.01;52.14
55538;BME280;41383;51.418;7.286;2023-06-19T10:26:19;99601.66;;;25.12;51.80
55538;BME280;41383;51.418;7.286;2023-06-19T10:28:46;99603.22;;;25.10;51.45
55538;BME280;41383;51.418;7.286;2023-06-19T10:31:13;99590.44;;;25.09;51.03
55538;BME280;41383;51.418;7.286;2023-06-19T10:33:38;99600.41;;;24.90;51.58
55538;BME280;41383;51.418;7.286;2023-06-19T10:36:20;99598.56;;;24.78;51.09
55538;BME280;41383;51.418;7.286;2023-06-19T10:38:48;99590.44;;;25.09;51.47
55538;BME280;41383;51.418;7.286;2023-06-19T10:41:15;99589.94;;;25.03;51.26
55538;BME280;41383;51.418;7.286;2023-06-19T10:43:41;99586.63;;;25.17;51.21
55538;BME280;41383;51.418;7.286;2023-06-19T10:46:06;99595.25;;;25.32;51.15
55538;BME280;41383;51.418;7.286;2023-06-19T10:48:31;99595.97;;;25.05;51.67
55538;BME280;41383;51.418;7.286;2023-06-19T10:50:57;99583.47;;;25.18;51.37
55538;BME280;41383;51.418;7.286;2023-06-19T10:53:27;99581.44;;;25.39;50.76
55538;BME280;41383;51.418;7.286;2023-06-19T10:56:01;99575.06;;;25.62;49.89
55538;BME280;41383;51.418;7.286;2023-06-19T10:58:27;99583.38;;;25.58;49.14
55538;BME280;41383;51.418;7.286;2023-06-19T11:00:53;99584.03;;;25.51;49.52
55538;BME280;41383;51.418;7.286;2023-06-19T11:03:21;99576.09;;;25.53;49.52
55538;BME280;41383;51.418;7.286;2023-06-19T11:05:48;99579.09;;;25.41;49.57
55538;BME280;41383;51.418;7.286;2023-06-19T11:08:29;99581.09;;;25.21;50.36
55538;BME280;41383;51.418;7.286;2023-06-19T11:10:55;99583.41;;;25.15;50.19
55538;BME280;41383;51.418;7.286;2023-06-19T11:13:21;99567.63;;;25.46;50.08
55538;BME280;41383;51.418;7.286;2023-06-19T11:15:50;99572.84;;;25.48;48.44
55538;BME280;41383;51.418;7.286;2023-06-19T11:18:17;99581.81;;;25.61;48.96
55538;BME280;41383;51.418;7.286;2023-06-19T11:20:52;99568.50;;;25.50;48.98
55538;BME280;41383;51.418;7.286;2023-06-19T11:23:28;99573.13;;;25.66;48.59
55538;BME280;41383;51.418;7.286;2023-06-19T11:26:02;99576.19;;;25.81;47.93
55538;BME280;41383;51.418;7.286;2023-06-19T11:28:27;99577.25;;;25.99;48.10
55538;BME280;41383;51.418;7.286;2023-06-19T11:31:01;99571.03;;;26.10;47.76
55538;BME280;41383;51.418;7.286;2023-06-19T11:33:28;99574.81;;;26.21;47.36
55538;BME280;41383;51.418;7.286;2023-06-19T11:35:54;99569.97;;;26.18;46.83
55538;BME280;41383;51.418;7.286;2023-06-19T11:38:21;99575.53;;;26.18;47.17
55538;BME280;41383;51.418;7.286;2023-06-19T11:40:48;99560.06;;;26.52;46.54
55538;BME280;41383;51.418;7.286;2023-06-19T11:43:26;99565.25;;;26.84;45.59
55538;BME280;41383;51.418;7.286;2023-06-19T11:45:52;99554.06;;;27.19;45.14
55538;BME280;41383;51.418;7.286;2023-06-19T11:48:22;99552.38;;;27.10;44.71
55538;BME280;41383;51.418;7.286;2023-06-19T11:50:48;99558.38;;;27.12;45.12
55538;BME280;41383;51.418;7.286;2023-06-19T11:53:13;99567.84;;;27.04;44.73
55538;BME280;41383;51.418;7.286;2023-06-19T11:55:38;99566.47;;;27.21;43.80
55538;BME280;41383;51.418;7.286;2023-06-19T11:58:04;99559.22;;;27.16;43.62
55538;BME280;41383;51.418;7.286;2023-06-19T12:00:29;99563.34;;;27.30;42.63
55538;BME280;41383;51.418;7.286;2023-06-19T12:02:54;99567.44;;;27.40;42.02
55538;BME280;41383;51.418;7.286;2023-06-19T12:05:22;99565.28;;;27.68;42.21
55538;BME280;41383;51.418;7.286;2023-06-19T12:07:47;99566.75;;;27.54;41.45
55538;BME280;41383;51.418;7.286;2023-06-19T12:10:12;99566.28;;;27.87;40.56
55538;BME280;41383;51.418;7.286;2023-06-19T12:12:37;99568.16;;;27.75;41.05
55538;BME280;41383;51.418;7.286;2023-06-19T12:15:04;99569.94;;;27.94;40.69
55538;BME280;41383;51.418;7.286;2023-06-19T12:17:30;99556.69;;;27.95;40.67
55538;BME280;41383;51.418;7.286;2023-06-19T12:19:55;99572.88;;;28.20;40.18
55538;BME280;41383;51.418;7.286;2023-06-19T12:22:20;99557.63;;;28.10;39.79
55538;BME280;41383;51.418;7.286;2023-06-19T12:24:46;99565.22;;;28.13;40.58
55538;BME280;41383;51.418;7.286;2023-06-19T12:27:11;99565.69;;;28.19;40.37
55538;BME280;41383;51.418;7.286;2023-06-19T12:29:36;99566.84;;;28.18;39.98
55538;BME280;41383;51.418;7.286;2023-06-19T12:32:02;99560.56;;;27.76;40.17
55538;BME280;41383;51.418;7.286;2023-06-19T12:34:28;99566.22;;;27.83;39.54
55538;BME280;41383;51.418;7.286;2023-06-19T12:36:53;99570.16;;;27.74;39.81
55538;BME280;41383;51.418;7.286;2023-06-19T12:39:19;99568.44;;;27.62;40.45
55538;BME280;41383;51.418;7.286;2023-06-19T12:41:44;99557.56;;;27.50;40.43
55538;BME280;41383;51.418;7.286;2023-06-19T12:44:10;99558.91;;;27.71;40.43
55538;BME280;41383;51.418;7.286;2023-06-19T12:46:35;99547.88;;;27.93;40.25
55538;BME280;41383;51.418;7.286;2023-06-19T12:49:00;99556.03;;;28.13;40.13
55538;BME280;41383;51.418;7.286;2023-06-19T12:51:26;99553.28;;;28.24;40.16
55538;BME280;41383;51.418;7.286;2023-06-19T12:53:51;99559.13;;;27.96;40.30
55538;BME280;41383;51.418;7.286;2023-06-19T12:56:16;99566.09;;;27.68;40.20